• Join FlightAware (Why Join?)
  • Login
  • US Flag 
01:42PM EDT


 

Airport Tracker/Info


-or-


 

Live Flight TrackerFlight Track Log ✈ UAL114 ✈ 25-Aug-2013 ✈ KEWR - EGLL / LHR

Flight Track Log - Related Links

Times and Time Zones

All times are in EDT time to prevent confusion due to time zone crossing. See the UAL114 flight status page for this flight to view local times or setup timezone preferences in your user account.

Time Position Orientation Groundspeed Altitude Reporting Facility
EDT Latitude Longitude Course Direction KTS MPH feet Rate Location/Type
10:13PM 40.6647 -74.1843 44° Northeast 164 189 500  Level FlightAware ADS-B
10:13PM 40.6568 -74.1845 181° South 182 209 800 1,860 Climbing FlightAware ADS-B
10:13PM 40.6463 -74.1835 176° South 188 216 1,200 1,860 Climbing FlightAware ADS-B
10:13PM 40.6432 -74.1833 177° South 191 220 1,300 1,680 Climbing FlightAware ADS-B
10:13PM 40.6403 -74.1835 183° South 191 220 1,400 2,520 Climbing FlightAware ADS-B
10:14PM 40.6370 -74.1842 189° South 191 220 1,600 2,520 Climbing FlightAware ADS-B
10:14PM 40.6254 -74.1923 208° Southwest 185 213 2,200 2,220 Climbing FlightAware ADS-B
10:14PM 40.6168 -74.2278 252° West 197 227 3,600 2,160 Climbing FlightAware ADS-B
10:15PM 40.6223 -74.2343 318° Northwest 200 230 3,900 2,160 Climbing FlightAware ADS-B
10:15PM 40.6247 -74.2360 332° Northwest 204 235 4,000 2,520 Climbing FlightAware ADS-B
10:15PM 40.6283 -74.2377 340° North 205 236 4,200 2,640 Climbing FlightAware ADS-B
10:15PM 40.6331 -74.2384 354° North 208 239 4,400 1,680 Climbing FlightAware ADS-B
10:15PM 40.6346 -74.2384 360° North 209 241 4,400 2,400 Level FlightAware ADS-B
10:15PM 40.6379 -74.2377 North 214 246 4,600 1,980 Climbing FlightAware ADS-B
10:15PM 40.6408 -74.2365 17° North 217 250 4,600 1,500 Level FlightAware ADS-B
10:15PM 40.6455 -74.2336 25° Northeast 225 259 4,800 1,620 Climbing FlightAware ADS-B
10:15PM 40.6504 -74.2291 35° Northeast 220 253 4,900 1,320 Climbing FlightAware ADS-B
10:15PM 40.6530 -74.2267 35° Northeast 234 269 5,000 1,680 Climbing FlightAware ADS-B
10:15PM 40.6570 -74.2228 36° Northeast 238 274 5,100 1,980 Climbing FlightAware ADS-B
10:15PM 40.6642 -74.2151 39° Northeast 243 280 5,400 1,500 Climbing FlightAware ADS-B
10:15PM 40.6705 -74.2073 43° Northeast 247 284 5,500 420 Climbing FlightAware ADS-B
10:16PM 40.6750 -74.2015 44° Northeast 250 288 5,500 600 Level FlightAware ADS-B
10:16PM 40.6865 -74.1842 49° Northeast 275 316 5,700 720 Climbing FlightAware ADS-B
10:16PM 40.6879 -74.1821 49° Northeast 278 320 5,700 900 Level FlightAware ADS-B
10:16PM 40.7033 -74.1581 50° Northeast 286 329 6,000 1,200 Climbing FlightAware ADS-B
10:16PM 40.7122 -74.1452 48° Northeast 286 329 6,300 2,160 Climbing FlightAware ADS-B
10:16PM 40.7208 -74.1325 48° Northeast 285 328 6,700 2,820 Climbing FlightAware ADS-B
10:17PM 40.7311 -74.1172 48° Northeast 293 337 7,300 3,000 Climbing FlightAware ADS-B
10:17PM 40.7351 -74.1114 48° Northeast 294 338 7,500 2,820 Climbing FlightAware ADS-B
10:17PM 40.7481 -74.0920 49° Northeast 293 337 8,200 2,820 Climbing FlightAware ADS-B
10:17PM 40.7503 -74.0887 49° Northeast 296 341 8,300 2,820 Climbing FlightAware ADS-B
10:17PM 40.7643 -74.0683 48° Northeast 299 344 9,000 2,580 Climbing FlightAware ADS-B
10:17PM 40.7792 -74.0474 47° Northeast 307 353 9,600 2,280 Climbing FlightAware ADS-B
10:18PM 40.7814 -74.0441 49° Northeast 306 352 9,700 720 Climbing FlightAware ADS-B
10:18PM 40.7938 -74.0262 48° Northeast 307 353 9,800 300 Climbing FlightAware ADS-B
10:18PM 40.7980 -74.0203 47° Northeast 307 353 9,800 -420 Level FlightAware ADS-B
10:18PM 40.8082 -74.0051 48° Northeast 305 351 9,700 -300 Descending FlightAware ADS-B
10:18PM 40.8166 -73.9926 48° Northeast 303 349 9,700  Level FlightAware ADS-B
10:18PM 40.8305 -73.9720 48° Northeast 311 358 9,700  Level FlightAware ADS-B
10:18PM 40.8329 -73.9684 49° Northeast 323 372 9,700 360 Level FlightAware ADS-B
10:19PM 40.8465 -73.9485 48° Northeast 345 397 9,800 480 Climbing FlightAware ADS-B
10:19PM 40.8703 -73.9130 48° Northeast 354 407 10,000 480 Climbing FlightAware ADS-B
10:20PM 40.9280 -73.8270 48° Northeast 357 411 10,400 900 Climbing FlightAware
10:20PM 40.9630 -73.7750 48° Northeast 358 412 11,300 2,040 Climbing FlightAware
10:21PM 41.0000 -73.7190 49° Northeast 359 413 12,700 2,460 Climbing FlightAware
10:21PM 41.0339 -73.6690 48° Northeast 366 421 13,900 2,460 Climbing FlightAware ADS-B
10:22PM 41.0918 -73.5820 49° Northeast 371 427 16,000 2,280 Climbing FlightAware ADS-B
10:23PM 41.1311 -73.5229 49° Northeast 379 436 17,200 1,980 Climbing FlightAware ADS-B
10:24PM 41.1828 -73.4446 49° Northeast 392 451 18,600 2,100 Climbing FlightAware ADS-B
10:24PM 41.2191 -73.3897 49° Northeast 393 452 19,800 1,920 Climbing FlightAware ADS-B
10:25PM 41.2890 -73.2840 49° Northeast 406 467 21,500 1,740 Climbing FlightAware
10:26PM 41.3350 -73.2140 49° Northeast 409 471 22,600 1,740 Climbing FlightAware
10:26PM 41.3697 -73.1588 50° Northeast 415 478 23,400 1,740 Climbing FlightAware ADS-B
10:27PM 41.4001 -73.1005 55° Northeast 422 486 24,200 1,560 Climbing FlightAware ADS-B
10:27PM 41.4324 -73.0287 59° Northeast 428 493 25,000 1,380 Climbing FlightAware ADS-B
10:28PM 41.4641 -72.9563 60° Northeast 434 499 25,700 1,500 Climbing FlightAware ADS-B
10:28PM 41.4947 -72.8867 60° Northeast 433 498 26,600 1,500 Climbing FlightAware ADS-B
10:29PM 41.5520 -72.7430 62° Northeast 444 511 28,000 1,260 Climbing FlightAware
10:30PM 41.5860 -72.6530 63° Northeast 449 517 28,700 1,140 Climbing FlightAware
10:30PM 41.6200 -72.5660 62° Northeast 453 521 29,400 780 Climbing FlightAware
10:31PM 41.6640 -72.4530 62° Northeast 457 526 29,900 1,200 Climbing FlightAware
10:32PM 41.6998 -72.3581 63° Northeast 462 532 31,100 1,980 Climbing FlightAware ADS-B
10:32PM 41.7310 -72.2750 63° Northeast 453 521 32,100 1,620 Climbing FlightAware
10:33PM 41.7680 -72.1800 62° Northeast 449 517 33,100 1,380 Climbing FlightAware
10:34PM 41.7970 -72.1020 63° Northeast 447 514 33,800 1,380 Climbing FlightAware
10:34PM 41.8320 -72.0110 63° Northeast 441 507 34,700 960 Climbing FlightAware
10:35PM 41.8660 -71.9220 63° Northeast 445 512 35,000 240 Climbing FlightAware
10:35PM 41.8950 -71.8440 63° Northeast 447 514 35,000  Level FlightAware
10:36PM 41.9310 -71.7480 63° Northeast 444 511 35,000  Level FlightAware
10:36PM 41.9630 -71.6610 64° Northeast 440 506 35,000  Level FlightAware
10:37PM 41.9920 -71.5830 63° Northeast 436 502 35,000  Level FlightAware
10:38PM 42.0240 -71.4960 64° Northeast 433 498 35,000  Level FlightAware
10:38PM 42.0540 -71.4140 64° Northeast 431 496 35,000  Level FlightAware
10:39PM 42.0880 -71.3220 64° Northeast 430 495 35,000  Level FlightAware
10:39PM 42.1160 -71.2460 64° Northeast 429 494 35,000  Level FlightAware
10:40PM 42.1470 -71.1610 64° Northeast 429 494 35,000  Level FlightAware
10:41PM 42.1780 -71.0740 64° Northeast 429 494 35,000  Level FlightAware
10:41PM 42.2100 -70.9850 64° Northeast 431 496 35,000  Level FlightAware
10:42PM 42.2390 -70.9060 64° Northeast 433 498 35,000  Level FlightAware
10:42PM 42.2710 -70.8170 64° Northeast 433 498 35,000  Level FlightAware
10:43PM 42.3020 -70.7310 64° Northeast 433 498 35,000  Level FlightAware
10:43PM 42.3300 -70.6530 64° Northeast 434 499 35,000  Level FlightAware
10:44PM 42.3620 -70.5620 65° Northeast 435 501 35,000  Level FlightAware
10:45PM 42.3930 -70.4740 64° Northeast 437 503 35,000  Level FlightAware
10:45PM 42.4210 -70.3950 64° Northeast 439 505 35,000  Level FlightAware
10:46PM 42.4530 -70.3040 64° Northeast 441 507 35,000  Level FlightAware
10:46PM 42.4840 -70.2150 65° Northeast 442 509 35,000  Level FlightAware
10:47PM 42.5160 -70.1240 64° Northeast 443 510 35,000  Level FlightAware
10:48PM 42.5410 -70.0510 65° Northeast 444 511 35,000  Level FlightAware
10:48PM 42.5720 -69.9630 64° Northeast 443 510 35,000  Level FlightAware
10:49PM 42.6040 -69.8710 65° Northeast 440 506 35,000  Level FlightAware
10:49PM 42.6340 -69.7820 65° Northeast 441 507 35,000  Level FlightAware
10:50PM 42.6650 -69.6940 64° Northeast 440 506 35,000  Level FlightAware
10:50PM 42.6950 -69.6040 66° East 439 505 35,000  Level FlightAware
10:51PM 42.7250 -69.5170 65° Northeast 438 504 35,000  Level FlightAware
10:52PM 42.7550 -69.4280 65° Northeast 437 503 35,000  Level FlightAware
10:52PM 42.7850 -69.3420 65° Northeast 437 503 35,000  Level FlightAware
10:53PM 42.8150 -69.2530 65° Northeast 436 502 35,000  Level FlightAware
10:53PM 42.8440 -69.1650 66° East 439 505 35,000  Level FlightAware
10:54PM 42.8740 -69.0770 65° Northeast 439 505 35,000  Level FlightAware
10:55PM 42.9080 -68.9740 66° East 428 493 35,000  Level FlightAware
10:55PM 42.9370 -68.8880 65° Northeast 439 505 35,000  Level FlightAware
10:56PM 42.9660 -68.8010 65° Northeast 439 505 35,000  Level FlightAware
10:56PM 42.9940 -68.7150 66° East 438 504 35,000  Level FlightAware
10:57PM 43.0300 -68.6070 65° Northeast 439 505 35,000  Level FlightAware
10:58PM 43.0580 -68.5250 65° Northeast 439 505 35,000  Level FlightAware
10:58PM 43.0840 -68.4480 65° Northeast 439 505 35,000  Level FlightAware
10:59PM 43.1160 -68.3430 67° East 652 750 35,000  Level FlightAware
11:02PM 43.2500 -67.9310 66° East 437 503 35,000  Level FlightAware
11:02PM 43.2780 -67.8430 66° East 438 504 35,000  Level FlightAware
11:03PM 43.3070 -67.7540 66° East 438 504 35,000  Level FlightAware
11:03PM 43.3340 -67.6670 67° East 438 504 35,000  Level FlightAware
11:04PM 43.3630 -67.5760 66° East 438 504 35,000  Level FlightAware
11:04PM 43.3920 -67.4870 66° East 434 499 35,000  Level FlightAware
11:05PM 43.4200 -67.3970 67° East 434 499 35,000  Level FlightAware
11:06PM 43.4470 -67.3110 67° East 433 498 35,000  Level FlightAware
11:06PM 43.4770 -67.2170 66° East 432 497 35,000  Level FlightAware
11:07PM 43.5030 -67.1320 67° East 432 497 35,000  Level FlightAware
11:07PM 43.5320 -67.0410 66° East 432 497 35,000  Level FlightAware
11:08PM 43.5580 -66.9690 63° Northeast 426 490 35,000  Level FlightAware
11:09PM 43.5980 -66.8730 60° Northeast 424 488 35,000  Level FlightAware
11:09PM 43.6330 -66.7920 59° Northeast 423 487 35,000  Level FlightAware
11:10PM 43.6680 -66.7090 60° Northeast 424 488 35,000  Level FlightAware
11:10PM 43.7030 -66.6280 59° Northeast 424 488 35,000  Level FlightAware
11:11PM 43.7380 -66.5440 60° Northeast 423 487 35,000  Level FlightAware
11:11PM 43.7720 -66.4630 60° Northeast 423 487 35,000  Level FlightAware
11:12PM 43.8090 -66.3770 59° Northeast 423 487 35,000  Level FlightAware
11:13PM 43.8430 -66.2960 60° Northeast 422 486 35,000  Level FlightAware
11:13PM 43.8840 -66.2000 59° Northeast 425 489 35,000  Level FlightAware
11:14PM 43.9160 -66.1220 60° Northeast 424 488 35,000  Level FlightAware
11:14PM 43.9520 -66.0360 60° Northeast 423 487 35,000  Level FlightAware
11:15PM 43.9860 -65.9550 60° Northeast 423 487 35,000  Level FlightAware
11:16PM 44.0210 -65.8720 60° Northeast 423 487 35,000  Level FlightAware
11:16PM 44.0540 -65.7910 60° Northeast 422 486 35,000  Level FlightAware
11:17PM 44.0890 -65.7090 59° Northeast 422 486 35,000  Level FlightAware
11:18PM 44.1380 -65.5890 60° Northeast 422 486 35,000  Level FlightAware
11:18PM 44.1720 -65.5080 60° Northeast 422 486 35,000  Level FlightAware
11:19PM 44.2050 -65.4280 60° Northeast 422 486 35,000  Level FlightAware
11:19PM 44.2400 -65.3420 60° Northeast 422 486 35,000  Level FlightAware
11:20PM 44.2730 -65.2610 60° Northeast 422 486 35,000  Level FlightAware
11:21PM 44.3060 -65.1810 60° Northeast 422 486 35,000  Level FlightAware
11:21PM 44.3410 -65.0950 60° Northeast 422 486 35,000  Level FlightAware
11:22PM 44.3690 -65.0260 60° Northeast 423 487 35,000  Level FlightAware
11:22PM 44.4060 -64.9340 61° Northeast 422 486 35,000  Level FlightAware
11:23PM 44.4420 -64.8450 60° Northeast 421 484 35,000  Level FlightAware
11:23PM 44.4750 -64.7640 60° Northeast 421 484 35,000  Level FlightAware
11:24PM 44.5090 -64.6800 60° Northeast 417 480 35,000  Level FlightAware
11:25PM 44.5420 -64.5990 60° Northeast 417 480 35,000  Level FlightAware
11:25PM 44.5740 -64.5190 61° Northeast 420 483 35,000  Level FlightAware
11:26PM 44.6080 -64.4320 61° Northeast 420 483 35,000  Level FlightAware
11:26PM 44.6420 -64.3470 61° Northeast 419 482 35,000  Level FlightAware
11:27PM 44.6770 -64.2600 60° Northeast 419 482 35,000  Level FlightAware
11:28PM 44.7120 -64.1710 61° Northeast 419 482 35,000  Level FlightAware
11:28PM 44.7460 -64.0860 61° Northeast 417 480 35,000  Level FlightAware
11:29PM 44.7780 -64.0050 61° Northeast 417 480 35,000  Level FlightAware
11:29PM 44.8080 -63.9270 62° Northeast 418 481 35,000  Level FlightAware
11:30PM 44.8440 -63.8360 61° Northeast 419 482 35,000  Level FlightAware
11:31PM 44.8730 -63.7630 61° Northeast 419 482 35,000  Level FlightAware
11:31PM 44.9060 -63.6760 62° Northeast 419 482 35,000  Level FlightAware
11:32PM 44.9400 -63.5900 61° Northeast 419 482 35,000  Level FlightAware
11:32PM 44.9740 -63.5030 61° Northeast 420 483 35,000  Level FlightAware
11:33PM 45.0060 -63.4190 62° Northeast 420 483 35,000  Level FlightAware
11:34PM 45.0410 -63.3280 61° Northeast 420 483 35,000  Level FlightAware
11:34PM 45.0680 -63.2580 61° Northeast 418 481 35,000  Level FlightAware
11:35PM 45.0980 -63.1780 62° Northeast 418 481 35,000  Level FlightAware
11:35PM 45.1260 -63.1040 62° Northeast 418 481 35,000  Level FlightAware
11:36PM 45.1540 -63.0280 62° Northeast 418 481 35,000  Level FlightAware
11:37PM 45.1820 -62.9530 62° Northeast 418 481 35,000  Level FlightAware
11:37PM 45.2100 -62.8790 62° Northeast 418 481 35,000  Level FlightAware
11:38PM 45.2380 -62.8030 62° Northeast 418 481 35,000  Level FlightAware
11:38PM 45.2660 -62.7290 62° Northeast 418 481 35,000  Level FlightAware
11:39PM 45.2950 -62.6520 62° Northeast 418 481 35,000  Level FlightAware
11:40PM 45.3230 -62.5760 62° Northeast 418 481 35,000  Level FlightAware
11:40PM 45.3510 -62.5020 62° Northeast 418 481 35,000  Level FlightAware
11:41PM 45.3790 -62.4270 62° Northeast 418 481 35,000  Level FlightAware
11:41PM 45.4070 -62.3530 62° Northeast 418 481 35,000  Level FlightAware
11:42PM 45.4340 -62.2790 63° Northeast 418 481 35,000  Level FlightAware
11:43PM 45.4620 -62.2040 62° Northeast 418 481 35,000  Level FlightAware
11:43PM 45.4900 -62.1300 62° Northeast 418 481 35,000  Level FlightAware
11:44PM 45.5180 -62.0550 62° Northeast 418 481 35,000  Level FlightAware
11:48PM 45.8360 -61.1710 62° Northeast 403 464 35,000  Level FlightAware
11:49PM 45.8630 -61.0960 63° Northeast 402 463 35,000  Level FlightAware
11:50PM 45.8930 -61.0110 63° Northeast 401 461 35,000  Level FlightAware
11:50PM 45.9230 -60.9240 64° Northeast 399 459 35,000  Level FlightAware
11:51PM 45.9520 -60.8390 64° Northeast 397 457 35,000  Level FlightAware
11:51PM 45.9810 -60.7580 63° Northeast 397 457 35,000  Level FlightAware
11:52PM 46.0100 -60.6730 64° Northeast 397 457 35,000  Level FlightAware
11:53PM 46.0370 -60.5950 63° Northeast 395 455 35,000  Level FlightAware
11:53PM 46.0640 -60.5150 64° Northeast 396 456 35,000  Level FlightAware
11:54PM 46.0940 -60.4290 63° Northeast 397 457 35,000  Level FlightAware
11:54PM 46.1210 -60.3480 64° Northeast 399 459 35,000  Level FlightAware
11:55PM 46.1520 -60.2560 64° Northeast 400 460 35,000  Level FlightAware
11:55PM 46.1810 -60.1720 63° Northeast 401 461 35,000  Level FlightAware
11:56PM 46.2070 -60.0950 64° Northeast 402 463 35,000  Level FlightAware
11:57PM 46.2360 -60.0070 64° Northeast 403 464 35,000  Level FlightAware
11:57PM 46.2650 -59.9190 64° Northeast 406 467 35,000  Level FlightAware
11:58PM 46.2930 -59.8370 64° Northeast 407 468 35,000  Level FlightAware
11:58PM 46.3200 -59.7540 65° Northeast 408 470 35,000  Level FlightAware
11:59PM 46.3520 -59.6580 64° Northeast 411 473 35,000  Level FlightAware
12:00AM 46.3770 -59.5810 65° Northeast 413 475 35,000  Level FlightAware
12:00AM 46.4070 -59.4910 64° Northeast 416 479 35,000  Level FlightAware
12:01AM 46.4370 -59.3970 65° Northeast 420 483 35,000  Level FlightAware
12:01AM 46.4630 -59.3170 65° Northeast 423 487 35,000  Level FlightAware
12:02AM 46.4930 -59.2250 65° Northeast 426 490 35,000  Level FlightAware
12:02AM 46.5240 -59.1300 65° Northeast 429 494 35,000  Level FlightAware
12:03AM 46.5510 -59.0470 65° Northeast 431 496 35,000  Level FlightAware
12:04AM 46.5800 -58.9540 66° East 434 499 35,000  Level FlightAware
12:04AM 46.6120 -58.8540 65° Northeast 436 502 35,000  Level FlightAware
12:05AM 46.6430 -58.7560 65° Northeast 438 504 35,000  Level FlightAware
12:05AM 46.6710 -58.6690 65° Northeast 441 507 35,000  Level FlightAware
12:06AM 46.7010 -58.5710 66° East 442 509 35,000  Level FlightAware
12:07AM 46.7320 -58.4730 65° Northeast 444 511 35,000  Level FlightAware
12:07AM 46.7590 -58.3860 66° East 446 513 35,000  Level FlightAware
12:08AM 46.7900 -58.2890 65° Northeast 447 514 35,000  Level FlightAware
12:08AM 46.8220 -58.1830 66° East 448 516 35,000  Level FlightAware
12:09AM 46.8490 -58.0950 66° East 448 516 35,000  Level FlightAware
12:09AM 46.8800 -57.9960 65° Northeast 448 516 35,000  Level FlightAware
12:10AM 46.9070 -57.9060 66° East 449 517 35,000  Level FlightAware
12:11AM 46.9440 -57.7860 66° East 449 517 35,000  Level FlightAware
12:11AM 46.9700 -57.7010 66° East 450 518 35,000  Level FlightAware
12:12AM 46.9980 -57.6050 67° East 452 520 35,000  Level FlightAware
12:12AM 47.0290 -57.5040 66° East 453 521 35,000  Level FlightAware
12:13AM 47.0550 -57.4180 66° East 453 521 35,000  Level FlightAware
12:14AM 47.0920 -57.2910 67° East 455 524 35,000  Level FlightAware
12:14AM 47.1180 -57.2050 66° East 456 525 35,000  Level FlightAware
12:15AM 47.1510 -57.0950 66° East 457 526 35,000  Level FlightAware
12:15AM 47.1810 -56.9920 67° East 458 527 35,000  Level FlightAware
12:16AM 47.2110 -56.8890 67° East 460 529 35,000  Level FlightAware
12:17AM 47.2330 -56.8140 67° East 462 532 35,000  Level FlightAware
12:17AM 47.2640 -56.7070 67° East 461 531 35,000  Level FlightAware
12:18AM 47.2930 -56.6070 67° East 464 534 35,000  Level FlightAware
12:18AM 47.3210 -56.5130 66° East 464 534 35,000  Level FlightAware
12:19AM 47.3530 -56.3980 68° East 466 536 35,000  Level FlightAware
12:19AM 47.3820 -56.2990 67° East 468 539 35,000  Level FlightAware
12:20AM 47.4210 -56.1620 67° East 469 540 35,000  Level FlightAware
12:21AM 47.4430 -56.0850 67° East 470 541 35,000  Level FlightAware
12:21AM 47.4820 -55.9470 67° East 471 542 35,000  Level FlightAware
12:22AM 47.5070 -55.8560 68° East 472 543 35,000  Level FlightAware
12:23AM 47.5380 -55.7460 67° East 472 543 35,000  Level FlightAware
12:23AM 47.5680 -55.6410 67° East 473 544 35,000  Level FlightAware
12:24AM 47.5920 -55.5530 68° East 474 545 35,000  Level FlightAware
12:24AM 47.6250 -55.4350 67° East 475 547 35,000  Level FlightAware
12:25AM 47.6540 -55.3280 68° East 477 549 35,000  Level FlightAware
12:25AM 47.6850 -55.2150 68° East 479 551 35,000  Level FlightAware
12:26AM 47.7110 -55.1190 68° East 481 554 35,000  Level FlightAware
12:27AM 47.7430 -55.0020 68° East 484 557 35,000  Level FlightAware
12:27AM 47.7730 -54.8920 68° East 486 559 35,000  Level FlightAware
12:28AM 47.8000 -54.7920 68° East 490 564 35,000  Level FlightAware
12:29AM 47.8440 -54.6290 68° East 493 567 35,000  Level FlightAware
12:29AM 47.8730 -54.5220 68° East 495 570 35,000  Level FlightAware
12:30AM 47.9030 -54.4060 69° East 497 572 35,000  Level FlightAware
12:30AM 47.9300 -54.3050 68° East 499 574 35,000  Level FlightAware
12:31AM 47.9600 -54.1910 69° East 501 577 35,000  Level FlightAware
12:32AM 47.9910 -54.0750 68° East 503 579 35,000  Level FlightAware
12:32AM 48.0160 -53.9790 69° East 505 581 35,000  Level FlightAware
12:33AM 48.0450 -53.8670 69° East 507 583 35,000  Level FlightAware
12:33AM 48.0750 -53.7530 68° East 510 587 35,000  Level FlightAware
12:34AM 48.1090 -53.6200 69° East 514 592 35,000  Level FlightAware
12:34AM 48.1370 -53.5120 69° East 516 594 35,000 240 Level FlightAware
12:35AM 48.1650 -53.4040 69° East 515 593 35,300 780 Climbing FlightAware
12:36AM 48.1940 -53.2880 69° East 517 595 35,900 960 Climbing FlightAware
12:36AM 48.2290 -53.1530 69° East 520 598 36,500 840 Climbing FlightAware
12:37AM 48.2570 -53.0390 70° East 524 603 37,000 420 Climbing FlightAware
12:37AM 48.2880 -52.9180 69° East 531 611 37,000  Level FlightAware
12:38AM 48.3230 -52.7770 69° East 527 606 37,000  Level FlightAware
12:39AM 48.3540 -52.6540 69° East 527 606 37,000  Level FlightAware
12:39AM 48.3830 -52.5340 70° East 527 606 37,000  Level FlightAware
12:40AM 48.4140 -52.4090 69° East 526 605 37,000  Level FlightAware
12:41AM 48.4510 -52.2570 70° East 526 605 37,000  Level FlightAware
12:41AM 48.4770 -52.1510 70° East 526 605 37,000  Level FlightAware
12:42AM 48.5160 -51.9910 70° East 526 605 37,000  Level FlightAware
12:43AM 48.5540 -51.8350 70° East 526 605 37,000  Level FlightAware
12:43AM 48.5810 -51.7210 70° East 526 605 37,000  Level FlightAware
12:44AM 48.6150 -51.5770 70° East 525 604 37,000  Level FlightAware
12:44AM 48.6430 -51.4580 70° East 525 604 37,000  Level FlightAware
12:45AM 48.6730 -51.3340 70° East 525 604 37,000  Level FlightAware
12:46AM 48.6980 -51.2240 71° East 525 604 37,000  Level FlightAware
12:46AM 48.7360 -51.0640 70° East 523 602 37,000  Level FlightAware
12:47AM 48.7700 -50.9160 71° East 523 602 37,000  Level FlightAware
12:48AM 48.8060 -50.7610 71° East 523 602 37,000  Level FlightAware
12:48AM 48.8290 -50.6590 71° East 524 603 37,000  Level FlightAware
12:49AM 48.8570 -50.5360 71° East 525 604 37,000  Level FlightAware
12:49AM 48.8850 -50.4130 71° East 525 604 37,000  Level FlightAware
12:50AM 48.9120 -50.2940 71° East 525 604 37,000  Level FlightAware
12:51AM 48.9370 -50.1520 75° East 512 589 37,000  Level FlightAware
12:51AM 48.9470 -50.0370 82° East 512 589 37,000  Level FlightAware
12:52AM 48.9570 -49.9280 82° East 512 589 37,000  Level FlightAware
12:53AM 48.9670 -49.8180 82° East 512 589 37,000  Level FlightAware
12:53AM 48.9770 -49.7090 82° East 512 589 37,000  Level FlightAware
12:54AM 48.9870 -49.6000 82° East 512 589 37,000  Level FlightAware
12:54AM 48.9980 -49.4900 81° East 512 589 37,000  Level FlightAware
12:55AM 49.0080 -49.3810 82° East 512 589 37,000  Level FlightAware
12:56AM 49.0180 -49.2710 82° East 512 589 37,000  Level FlightAware
12:56AM 49.0280 -49.1620 82° East 512 589 37,000  Level FlightAware
12:57AM 49.0380 -49.0530 82° East 512 589 37,000  Level FlightAware
12:57AM 49.0480 -48.9430 82° East 512 589 37,000  Level FlightAware
12:58AM 49.0580 -48.8330 82° East 512 589 37,000  Level FlightAware
12:59AM 49.0680 -48.7210 82° East 512 589 37,000  Level FlightAware
12:59AM 49.0780 -48.6110 82° East 512 589 37,000  Level FlightAware
01:00AM 49.0890 -48.4990 81° East 512 589 37,000  Level FlightAware
01:00AM 49.0990 -48.3890 82° East 512 589 37,000  Level FlightAware
01:01AM 49.4500 -47.8833 82° East 540 621 37,000  Level Gander Center
01:02AM 49.4833 -47.6500 78° East 540 621 37,000  Level Gander Center
01:03AM 49.5500 -47.4500 63° Northeast 540 621 37,000  Level Gander Center
01:06AM 49.6059 -47.2129 70° East  Level FlightAware Approximate
01:13AM 49.9100 -45.8753 70° East  Level FlightAware Approximate
01:14AM 49.9521 -45.6829 71° East  Level FlightAware Approximate
01:15AM 49.9940 -45.4901 71° East  Level FlightAware Approximate
01:16AM 50.0355 -45.2970 71° East  Level FlightAware Approximate
01:17AM 50.0767 -45.1035 72° East  Level FlightAware Approximate
01:18AM 50.1176 -44.9097 72° East  Level FlightAware Approximate
01:19AM 50.1582 -44.7156 72° East  Level FlightAware Approximate
01:20AM 50.1984 -44.5212 72° East  Level FlightAware Approximate
01:21AM 50.2384 -44.3264 72° East  Level FlightAware Approximate
01:22AM 50.2780 -44.1313 72° East  Level FlightAware Approximate
01:23AM 50.3172 -43.9359 72° East  Level FlightAware Approximate
01:24AM 50.3562 -43.7402 73° East  Level FlightAware Approximate
01:25AM 50.3948 -43.5441 73° East  Level FlightAware Approximate
01:26AM 50.4331 -43.3477 73° East  Level FlightAware Approximate
01:27AM 50.4710 -43.1510 73° East  Level FlightAware Approximate
01:28AM 50.5086 -42.9540 73° East  Level FlightAware Approximate
01:29AM 50.5459 -42.7567 73° East  Level FlightAware Approximate
01:30AM 50.5829 -42.5591 74° East  Level FlightAware Approximate
01:31AM 50.6184 -42.3607 75° East  Level FlightAware Approximate
01:32AM 50.6527 -42.1616 75° East  Level FlightAware Approximate
01:33AM 50.6866 -41.9622 75° East  Level FlightAware Approximate
01:34AM 50.7202 -41.7625 75° East  Level FlightAware Approximate
01:35AM 50.7535 -41.5625 75° East  Level FlightAware Approximate
01:36AM 50.7864 -41.3622 75° East  Level FlightAware Approximate
01:37AM 50.8190 -41.1617 76° East  Level FlightAware Approximate
01:38AM 50.8512 -40.9608 76° East  Level FlightAware Approximate
01:39AM 50.8831 -40.7597 76° East  Level FlightAware Approximate
01:40AM 50.9146 -40.5583 76° East  Level FlightAware Approximate
01:41AM 50.9458 -40.3567 76° East  Level FlightAware Approximate
01:42AM 50.9766 -40.1548 76° East  Level FlightAware Approximate
01:43AM 51.0110 -39.9545 69° East  Level FlightAware Approximate
01:44AM 51.0579 -39.7602 69° East  Level FlightAware Approximate
01:45AM 51.1044 -39.5655 69° East  Level FlightAware Approximate
01:46AM 51.1506 -39.3704 69° East  Level FlightAware Approximate
01:47AM 51.1965 -39.1750 69° East  Level FlightAware Approximate
01:48AM 51.2420 -38.9791 70° East  Level FlightAware Approximate
01:49AM 51.2874 -38.7829 69° East  Level FlightAware Approximate
01:50AM 51.3337 -38.5871 69° East  Level FlightAware Approximate
01:51AM 51.3797 -38.3909 69° East  Level FlightAware Approximate
01:52AM 51.4253 -38.1943 70° East  Level FlightAware Approximate
01:53AM 51.4706 -37.9973 70° East  Level FlightAware Approximate
01:54AM 51.5156 -37.8000 70° East  Level FlightAware Approximate
01:55AM 51.5603 -37.6022 70° East  Level FlightAware Approximate
01:56AM 51.6046 -37.4041 70° East  Level FlightAware Approximate
01:57AM 51.6486 -37.2055 70° East  Level FlightAware Approximate
01:58AM 51.6922 -37.0066 70° East  Level FlightAware Approximate
01:59AM 51.7355 -36.8073 71° East  Level FlightAware Approximate
02:00AM 51.7785 -36.6076 71° East  Level FlightAware Approximate
02:01AM 51.8212 -36.4076 71° East  Level FlightAware Approximate
02:02AM 51.8636 -36.2072 71° East  Level FlightAware Approximate
02:03AM 51.9058 -36.0065 71° East  Level FlightAware Approximate
02:04AM 51.9477 -35.8055 71° East  Level FlightAware Approximate
02:05AM 51.9893 -35.6040 71° East  Level FlightAware Approximate
02:06AM 52.0304 -35.4022 72° East  Level FlightAware Approximate
02:07AM 52.0713 -35.2001 72° East  Level FlightAware Approximate
02:08AM 52.1118 -34.9975 72° East  Level FlightAware Approximate
02:09AM 52.1519 -34.7946 72° East  Level FlightAware Approximate
02:10AM 52.1917 -34.5914 72° East  Level FlightAware Approximate
02:11AM 52.2312 -34.3877 72° East  Level FlightAware Approximate
02:12AM 52.2703 -34.1837 73° East  Level FlightAware Approximate
02:13AM 52.3090 -33.9794 73° East  Level FlightAware Approximate
02:14AM 52.3481 -33.7751 72° East  Level FlightAware Approximate
02:15AM 52.3881 -33.5710 72° East  Level FlightAware Approximate
02:16AM 52.4278 -33.3666 72° East  Level FlightAware Approximate
02:17AM 52.4671 -33.1618 72° East  Level FlightAware Approximate
02:18AM 52.5060 -32.9566 73° East  Level FlightAware Approximate
02:19AM 52.5436 -32.7506 73° East  Level FlightAware Approximate
02:20AM 52.5804 -32.5440 74° East  Level FlightAware Approximate
02:21AM 52.6169 -32.3371 74° East  Level FlightAware Approximate
02:22AM 52.6530 -32.1298 74° East  Level FlightAware Approximate
02:23AM 52.6887 -31.9223 74° East  Level FlightAware Approximate
02:24AM 52.7241 -31.7143 74° East  Level FlightAware Approximate
02:25AM 52.7592 -31.5061 74° East  Level FlightAware Approximate
02:26AM 52.7938 -31.2974 75° East  Level FlightAware Approximate
02:27AM 52.8281 -31.0885 75° East  Level FlightAware Approximate
02:28AM 52.8620 -30.8793 75° East  Level FlightAware Approximate
02:29AM 52.8956 -30.6697 75° East  Level FlightAware Approximate
02:30AM 52.9288 -30.4598 75° East  Level FlightAware Approximate
02:31AM 52.9616 -30.2495 75° East  Level FlightAware Approximate
02:32AM 52.9940 -30.0390 76° East  Level FlightAware Approximate
02:33AM 53.0246 -29.8275 77° East  Level FlightAware Approximate
02:34AM 53.0543 -29.6155 77° East  Level FlightAware Approximate
02:35AM 53.0837 -29.4033 77° East  Level FlightAware Approximate
02:36AM 53.1128 -29.1908 77° East  Level FlightAware Approximate
02:37AM 53.1414 -28.9780 77° East  Level FlightAware Approximate
02:38AM 53.1697 -28.7649 77° East  Level FlightAware Approximate
02:39AM 53.1976 -28.5516 78° East  Level FlightAware Approximate
02:40AM 53.2251 -28.3379 78° East  Level FlightAware Approximate
02:41AM 53.2522 -28.1240 78° East  Level FlightAware Approximate
02:42AM 53.2789 -27.9098 78° East  Level FlightAware Approximate
02:43AM 53.3053 -27.6954 78° East  Level FlightAware Approximate
02:44AM 53.3313 -27.4807 78° East  Level FlightAware Approximate
02:45AM 53.3568 -27.2657 79° East  Level FlightAware Approximate
02:46AM 53.3820 -27.0505 79° East  Level FlightAware Approximate
02:47AM 53.4069 -26.8350 79° East  Level FlightAware Approximate
02:48AM 53.4313 -26.6193 79° East  Level FlightAware Approximate
02:49AM 53.4553 -26.4033 79° East  Level FlightAware Approximate
02:50AM 53.4793 -26.1872 79° East  Level FlightAware Approximate
02:51AM 53.5031 -25.9709 79° East  Level FlightAware Approximate
02:52AM 53.5266 -25.7544 80° East  Level FlightAware Approximate
02:53AM 53.5496 -25.5377 80° East  Level FlightAware Approximate
02:54AM 53.5723 -25.3207 80° East  Level FlightAware Approximate
02:55AM 53.5946 -25.1035 80° East  Level FlightAware Approximate
02:56AM 53.6165 -24.8860 80° East  Level FlightAware Approximate
02:57AM 53.6380 -24.6683 80° East  Level FlightAware Approximate
02:58AM 53.6591 -24.4504 81° East  Level FlightAware Approximate
02:59AM 53.6798 -24.2323 81° East  Level FlightAware Approximate
03:00AM 53.7001 -24.0140 81° East  Level FlightAware Approximate
03:01AM 53.7200 -23.7955 81° East  Level FlightAware Approximate
03:02AM 53.7395 -23.5767 81° East  Level FlightAware Approximate
03:03AM 53.7586 -23.3578 82° East  Level FlightAware Approximate
03:04AM 53.7773 -23.1387 82° East  Level FlightAware Approximate
03:05AM 53.7956 -22.9194 82° East  Level FlightAware Approximate
03:06AM 53.8135 -22.6999 82° East  Level FlightAware Approximate
03:07AM 53.8310 -22.4802 82° East  Level FlightAware Approximate
03:08AM 53.8481 -22.2603 82° East  Level FlightAware Approximate
03:09AM 53.8648 -22.0402 83° East  Level FlightAware Approximate
03:10AM 53.8811 -21.8200 83° East  Level FlightAware Approximate
03:11AM 53.8970 -21.5996 83° East  Level FlightAware Approximate
03:12AM 53.9125 -21.3790 83° East  Level FlightAware Approximate
03:13AM 53.9276 -21.1583 83° East  Level FlightAware Approximate
03:14AM 53.9423 -20.9374 83° East  Level FlightAware Approximate
03:15AM 53.9566 -20.7164 84° East  Level FlightAware Approximate
03:16AM 53.9705 -20.4952 84° East  Level FlightAware Approximate
03:17AM 53.9839 -20.2738 84° East  Level FlightAware Approximate
03:18AM 53.9970 -20.0524 84° East  Level FlightAware Approximate
03:19AM 53.9900 -19.8309 96° East  Level FlightAware Approximate
03:20AM 53.9765 -19.6095 96° East  Level FlightAware Approximate
03:21AM 53.9626 -19.3883 96° East  Level FlightAware Approximate
03:22AM 53.9483 -19.1672 96° East  Level FlightAware Approximate
03:23AM 53.9336 -18.9463 96° East  Level FlightAware Approximate
03:23AM 53.9720 -14.7050 97° East 479 551 37,000  Level FlightAware
03:23AM 53.9780 -14.5540 86° East 478 550 37,000  Level FlightAware
03:24AM 53.9184 -18.7256 97° East  Level FlightAware Approximate
03:24AM 53.9730 -14.4800 97° East 474 545 37,000  Level FlightAware
03:24AM 53.9560 -14.3720 105° East 476 548 37,000  Level FlightAware
03:25AM 53.9370 -14.2440 104° East 474 545 37,000  Level FlightAware
03:25AM 53.9190 -14.1120 103° East 476 548 37,000  Level FlightAware
03:26AM 53.9000 -13.9900 105° East 475 547 37,000  Level FlightAware
03:27AM 53.8790 -13.8620 106° East 475 547 37,000  Level FlightAware
03:27AM 53.8580 -13.7370 106° East 475 547 37,000  Level FlightAware
03:28AM 53.8370 -13.6120 106° East 475 547 37,000  Level FlightAware
03:28AM 53.8160 -13.4880 106° East 474 545 37,000  Level FlightAware
03:29AM 53.7950 -13.3630 106° East 474 545 37,000  Level FlightAware
03:29AM 53.7730 -13.2380 107° East 473 544 37,000  Level FlightAware
03:30AM 53.7490 -13.0970 106° East 471 542 37,000  Level FlightAware
03:31AM 53.7270 -12.9740 107° East 470 541 37,000  Level FlightAware
03:31AM 53.7030 -12.8410 107° East 467 537 37,000  Level FlightAware
03:32AM 53.6770 -12.6920 106° East 466 536 37,000  Level FlightAware
03:33AM 53.6550 -12.5710 107° East 466 536 37,000  Level FlightAware
03:33AM 53.6300 -12.4300 107° East 466 536 37,000  Level FlightAware
03:34AM 53.6080 -12.3110 107° East 465 535 37,000  Level FlightAware
03:34AM 53.5850 -12.1870 107° East 464 534 37,000  Level FlightAware
03:35AM 53.5640 -12.0700 107° East 462 532 37,000  Level FlightAware
03:36AM 53.5410 -11.9460 107° East 461 531 37,000  Level FlightAware
03:36AM 53.5190 -11.8290 108° East 461 531 37,000  Level FlightAware
03:37AM 53.4960 -11.7070 108° East 459 528 37,000  Level FlightAware
03:37AM 53.4740 -11.5890 107° East 458 527 37,000  Level FlightAware
03:38AM 53.4510 -11.4700 108° East 458 527 37,000  Level FlightAware
03:39AM 53.4290 -11.3530 107° East 457 526 37,000  Level FlightAware
03:39AM 53.4060 -11.2320 108° East 457 526 37,000  Level FlightAware
03:40AM 53.3830 -11.1160 108° East 457 526 37,000  Level FlightAware
03:40AM 53.3600 -10.9950 108° East 460 529 37,000  Level FlightAware
03:41AM 53.3370 -10.8800 108° East 461 531 37,000  Level FlightAware
03:41AM 53.3130 -10.7600 108° East 461 531 37,000  Level FlightAware
03:42AM 53.2900 -10.6440 108° East 460 529 37,000  Level FlightAware
03:43AM 53.2660 -10.5240 108° East 460 529 37,000  Level FlightAware
03:43AM 53.2430 -10.4070 108° East 461 531 37,000  Level FlightAware
03:44AM 53.2190 -10.2900 109° East 461 531 37,000  Level FlightAware
03:44AM 53.1950 -10.1740 109° East 461 531 37,000  Level FlightAware
03:45AM 53.1680 -10.0370 108° East 460 529 37,000  Level FlightAware
03:46AM 53.1400 -9.9040 109° East 461 531 37,000  Level FlightAware
03:46AM 53.1160 -9.7890 109° East 460 529 37,000  Level FlightAware
03:47AM 53.0960 -9.6910 109° East 457 526 37,000  Level FlightAware
03:47AM 53.0670 -9.5530 109° East 457 526 37,000  Level FlightAware
03:48AM 53.0430 -9.4390 109° East 457 526 37,000  Level FlightAware
03:49AM 53.0210 -9.3380 110° East 456 525 37,000  Level FlightAware
03:49AM 52.9940 -9.2080 109° East 457 526 37,000  Level FlightAware
03:50AM 52.9680 -9.0900 110° East 456 525 37,000  Level FlightAware
03:50AM 52.9460 -8.9890 110° East 455 524 37,000  Level FlightAware
03:51AM 52.9180 -8.8590 110° East 453 521 37,000  Level FlightAware
03:52AM 52.8810 -8.6922 110° East 462 532 37,000  Level FlightAware UK
03:52AM 52.8930 -8.7430 110° East 451 519 37,000  Level FlightAware
03:52AM 52.8594 -8.5951 110° East 458 527 37,000  Level FlightAware UK
03:52AM 52.8680 -8.6300 110° East 450 518 37,000  Level FlightAware
03:53AM 52.8333 -8.4790 110° East 458 527 37,000  Level FlightAware UK
03:53AM 52.8390 -8.4990 110° East 450 518 37,000  Level FlightAware
03:53AM 52.8140 -8.3870 110° East 449 517 37,000  Level FlightAware
03:54AM 52.7880 -8.2730 111° Southeast 448 516 37,000  Level FlightAware
03:55AM 52.7630 -8.1610 110° East 448 516 37,000  Level FlightAware
03:55AM 52.7370 -8.0470 111° Southeast 452 520 37,000  Level FlightAware
03:56AM 52.7014 -7.9026 111° Southeast 454 522 37,000  Level FlightAware UK
03:56AM 52.7120 -7.9360 111° Southeast 454 522 37,000  Level FlightAware
03:56AM 52.6860 -7.8220 111° Southeast 454 522 37,000  Level FlightAware
03:57AM 52.6600 -7.7090 111° Southeast 454 522 37,000  Level FlightAware
03:57AM 52.6330 -7.5950 111° Southeast 455 524 37,000  Level FlightAware
03:58AM 52.6080 -7.4890 111° Southeast 455 524 37,000  Level FlightAware
03:59AM 52.5800 -7.3700 111° Southeast 454 522 37,000  Level FlightAware
03:59AM 52.5550 -7.2620 111° Southeast 454 522 37,000  Level FlightAware
04:00AM 52.5270 -7.1450 111° Southeast 453 521 37,000  Level FlightAware
04:00AM 52.4884 -6.9986 111° Southeast 464 534 37,000  Level FlightAware UK
04:00AM 52.5040 -7.0480 111° Southeast 452 520 37,000 -420 Level FlightAware
04:01AM 52.4655 -6.9039 111° Southeast 466 536 36,800 -360 Descending FlightAware UK
04:01AM 52.4730 -6.9200 111° Southeast 454 522 36,800 -900 Level FlightAware
04:02AM 52.4460 -6.8080 112° Southeast 451 519 36,200 -1,020 Descending FlightAware
04:02AM 52.4170 -6.6910 112° Southeast 444 511 35,600 -1,080 Descending FlightAware
04:03AM 52.3930 -6.5920 112° Southeast 445 512 35,000 -1,080 Descending FlightAware
04:03AM 52.3640 -6.4740 112° Southeast 452 520 34,400 -960 Descending FlightAware
04:04AM 52.3390 -6.3700 111° Southeast 461 531 33,900 -960 Descending FlightAware
04:04AM 52.2980 -6.2229 111° Southeast 466 536 33,300 -1,020 Descending FlightAware UK
04:04AM 52.3080 -6.2480 111° Southeast 469 540 33,300 -600 Level FlightAware
04:05AM 52.2820 -6.1420 112° Southeast 473 544 33,000 -300 Descending FlightAware
04:06AM 52.2530 -6.0300 113° Southeast 473 544 33,000  Level FlightAware
04:06AM 52.2260 -5.9070 110° East 468 539 33,000  Level FlightAware
04:07AM 52.2000 -5.7850 109° East 466 536 33,000  Level FlightAware
04:07AM 52.1760 -5.6760 110° East 465 535 33,000  Level FlightAware
04:08AM 52.1399 -5.5303 110° East 464 534 33,000  Level FlightAware UK
04:08AM 52.1520 -5.5650 110° East 466 536 33,000  Level FlightAware
04:08AM 52.1175 -5.4316 110° East 464 534 33,000  Level FlightAware UK
04:09AM 52.1250 -5.4440 110° East 466 536 33,000  Level FlightAware
04:09AM 52.0970 -5.3230 111° Southeast 466 536 33,000  Level FlightAware
04:10AM 52.0720 -5.2130 110° East 467 537 33,000  Level FlightAware
04:10AM 52.0420 -5.0850 111° Southeast 467 537 33,000  Level FlightAware
04:11AM 52.0100 -4.9600 111° Southeast 466 536 33,000  Level FlightAware UK
04:11AM 52.0170 -4.9750 111° Southeast 466 536 33,000  Level FlightAware
04:12AM 51.9900 -4.8560 110° East 465 535 33,000  Level FlightAware
04:12AM 51.9670 -4.7560 110° East 464 534 33,000  Level FlightAware
04:13AM 51.9287 -4.6086 110° East 464 534 33,000  Level FlightAware UK
04:13AM 51.9370 -4.6310 110° East 465 535 33,000  Level FlightAware
04:13AM 51.9016 -4.4918 110° East 470 541 33,000  Level FlightAware UK
04:13AM 51.9100 -4.5130 110° East 463 533 33,000  Level FlightAware
04:14AM 51.8850 -4.4090 111° Southeast 460 529 33,000  Level FlightAware
04:14AM 51.8580 -4.2930 111° Southeast 451 519 33,000  Level FlightAware
04:15AM 51.8300 -4.1800 112° Southeast 448 516 33,000  Level FlightAware
04:16AM 51.8070 -4.0830 111° Southeast 448 516 33,000  Level FlightAware
04:16AM 51.7820 -3.9780 111° Southeast 451 519 33,000  Level FlightAware
04:17AM 51.7510 -3.8500 111° Southeast 453 521 33,000  Level FlightAware
04:17AM 51.7260 -3.7510 112° Southeast 454 522 33,000  Level FlightAware
04:18AM 51.7084 -3.6793 112° Southeast 454 522 33,000  Level FlightAware ADS-B
04:18AM 51.6759 -3.5513 112° Southeast 457 526 33,000  Level FlightAware ADS-B
04:19AM 51.6479 -3.4427 113° Southeast 458 527 33,000 -660 Level FlightAware ADS-B
04:19AM 51.6225 -3.3447 113° Southeast 462 532 32,300 -1,260 Descending FlightAware ADS-B
04:20AM 51.5975 -3.2481 113° Southeast 460 529 31,700 -1,020 Descending FlightAware ADS-B
04:21AM 51.5683 -3.1344 112° Southeast 460 529 31,200 -1,200 Descending FlightAware ADS-B
04:21AM 51.5228 -2.9594 112° Southeast 468 539 30,100 -1,380 Descending FlightAware UK
04:21AM 51.5247 -2.9662 112° Southeast 459 528 30,000 -1,080 Descending FlightAware ADS-B
04:22AM 51.4981 -2.8647 113° Southeast 459 528 29,400 -1,140 Descending FlightAware ADS-B
04:22AM 51.4874 -2.8089 107° East 450 518 29,100 -1,380 Descending FlightAware ADS-B
04:23AM 51.4754 -2.7104 101° East 439 505 28,300 -2,040 Descending FlightAware ADS-B
04:23AM 51.4634 -2.6110 101° East 433 498 27,000 -2,400 Descending FlightAware ADS-B
04:24AM 51.4519 -2.5174 101° East 427 491 25,900 -2,280 Descending FlightAware ADS-B
04:24AM 51.4404 -2.4242 101° East 420 483 24,700 -2,340 Descending FlightAware ADS-B
04:25AM 51.4287 -2.3291 101° East 412 474 23,500 -2,220 Descending FlightAware ADS-B
04:25AM 51.4174 -2.2361 101° East 404 465 22,400 -2,160 Descending FlightAware ADS-B
04:26AM 51.4071 -2.1475 101° East 398 458 21,300 -2,280 Descending FlightAware ADS-B
04:26AM 51.3971 -2.0605 100° East 391 450 20,100 -2,280 Descending FlightAware ADS-B
04:27AM 51.3873 -1.9738 100° East 384 442 19,000 -2,220 Descending FlightAware ADS-B
04:27AM 51.3781 -1.8890 100° East 377 434 17,900 -2,220 Descending FlightAware ADS-B
04:28AM 51.3691 -1.8061 100° East 371 427 16,800 -2,280 Descending FlightAware ADS-B
04:28AM 51.3602 -1.7230 100° East 367 422 15,600 -2,160 Descending FlightAware ADS-B
04:29AM 51.3558 -1.6729 98° East 361 415 15,000 -1,560 Descending FlightAware ADS-B
04:29AM 51.3530 -1.5920 93° East 356 410 14,300 -1,320 Descending FlightAware ADS-B
04:30AM 51.3506 -1.5125 93° East 349 402 13,700 -1,140 Descending FlightAware ADS-B
04:30AM 51.3480 -1.4337 93° East 345 397 13,200 -1,080 Descending FlightAware ADS-B
04:31AM 51.3455 -1.3551 93° East 343 395 12,600 -1,020 Descending FlightAware ADS-B
04:31AM 51.3429 -1.2782 93° East 343 395 12,200 -900 Descending FlightAware ADS-B
04:32AM 51.3401 -1.2009 93° East 343 395 11,700 -900 Descending FlightAware ADS-B
04:32AM 51.3374 -1.1243 93° East 340 391 11,300 -840 Descending FlightAware ADS-B
04:33AM 51.3350 -1.0522 93° East 314 361 10,900 -720 Descending FlightAware ADS-B
04:33AM 51.3326 -0.9847 93° East 293 337 10,600 -720 Descending FlightAware ADS-B
04:34AM 51.3305 -0.9248 93° East 277 319 10,200 -1,140 Descending FlightAware ADS-B
04:34AM 51.3295 -0.8937 93° East 276 318 9,800 -1,200 Descending FlightAware ADS-B
04:34AM 51.3285 -0.8624 93° East 272 313 9,600 -780 Descending FlightAware ADS-B
04:35AM 51.3274 -0.8324 93° East 265 305 9,400 -840 Descending FlightAware ADS-B
04:35AM 51.3264 -0.8034 93° East 258 297 9,200 -840 Descending FlightAware ADS-B
04:35AM 51.3254 -0.7749 93° East 251 289 9,000 -840 Descending FlightAware ADS-B
04:35AM 51.3243 -0.7471 94° East 245 282 8,800 -720 Descending FlightAware ADS-B
04:36AM 51.3236 -0.7256 93° East 239 275 8,700 -840 Descending FlightAware ADS-B
04:36AM 51.3236 -0.7201 90° East 237 273 8,600 -780 Descending FlightAware ADS-B
04:36AM 51.3242 -0.7127 83° East 236 272 8,600 -780 Level FlightAware ADS-B
04:36AM 51.3249 -0.7072 78° East 235 270 8,500 -1,740 Descending FlightAware ADS-B
04:36AM 51.3264 -0.7002 71° East 234 269 8,400 -1,500 Descending FlightAware ADS-B
04:36AM 51.3281 -0.6951 62° Northeast 233 268 8,300 -900 Descending FlightAware ADS-B
04:36AM 51.3304 -0.6899 55° Northeast 234 269 8,300 -780 Level FlightAware ADS-B
04:36AM 51.3339 -0.6839 47° Northeast 235 270 8,200 -1,380 Descending FlightAware ADS-B
04:36AM 51.3376 -0.6796 36° Northeast 235 270 8,100 -1,500 Descending FlightAware ADS-B
04:36AM 51.3408 -0.6767 30° Northeast 235 270 8,000 -1,500 Descending FlightAware ADS-B
04:36AM 51.3451 -0.6741 20° North 237 273 7,900 -900 Descending FlightAware ADS-B
04:36AM 51.3484 -0.6728 15° North 238 274 7,900 -900 Level FlightAware ADS-B
04:36AM 51.3523 -0.6721 North 239 275 7,800 -1,740 Descending FlightAware ADS-B
04:36AM 51.3556 -0.6722 359° North 242 278 7,700 -2,040 Descending FlightAware ADS-B
04:36AM 51.3601 -0.6731 353° North 243 280 7,600 -1,500 Descending FlightAware ADS-B
04:36AM 51.3647 -0.6754 343° North 246 283 7,500 -780 Descending FlightAware ADS-B
04:37AM 51.3681 -0.6777 337° Northwest 248 285 7,500 -1,020 Level FlightAware ADS-B
04:37AM 51.3716 -0.6810 330° Northwest 249 287 7,400 -2,040 Descending FlightAware ADS-B
04:37AM 51.3743 -0.6843 323° Northwest 250 288 7,300 -1,740 Descending FlightAware ADS-B
04:37AM 51.3769 -0.6884 315° West 252 290 7,200 -900 Descending FlightAware ADS-B
04:37AM 51.3793 -0.6931 310° West 253 291 7,200 -900 Level FlightAware ADS-B
04:37AM 51.3817 -0.6987 304° West 254 292 7,100 -1,500 Descending FlightAware ADS-B
04:37AM 51.3836 -0.7054 294° West 254 292 7,000 -900 Descending FlightAware ADS-B
04:37AM 51.3848 -0.7108 289° West 254 292 7,000  Level FlightAware ADS-B
04:37AM 51.3856 -0.7186 279° West 254 292 7,000  Level FlightAware ADS-B
04:37AM 51.3861 -0.7256 277° West 252 290 7,000 -1,140 Level FlightAware ADS-B
04:37AM 51.3863 -0.7401 271° West 251 289 6,800 -1,440 Descending FlightAware ADS-B
04:37AM 51.3865 -0.7646 271° West 253 291 6,500 -1,020 Descending FlightAware ADS-B
04:38AM 51.3865 -0.7955 270° West 258 297 6,300 -780 Descending FlightAware ADS-B
04:38AM 51.3868 -0.8264 271° West 259 298 6,100 -600 Descending FlightAware ADS-B
04:38AM 51.3870 -0.8577 271° West 257 296 6,000 -600 Descending FlightAware ADS-B
04:38AM 51.3872 -0.8849 271° West 257 296 5,800 -660 Descending FlightAware ADS-B
04:39AM 51.3874 -0.8930 272° West 256 295 5,800  Level FlightAware ADS-B
04:39AM 51.3879 -0.9009 276° West 256 295 5,800  Level FlightAware ADS-B
04:39AM 51.3894 -0.9096 285° West 256 295 5,800 660 Level FlightAware ADS-B
04:39AM 51.3911 -0.9171 290° West 255 293 5,900 660 Climbing FlightAware ADS-B
04:39AM 51.3937 -0.9255 296° West 254 292 5,900  Level FlightAware ADS-B
04:39AM 51.3956 -0.9308 300° West 255 293 5,900  Level FlightAware ADS-B
04:39AM 51.3982 -0.9370 304° West 252 290 5,900 -900 Level FlightAware ADS-B
04:39AM 51.4002 -0.9412 307° West 249 287 5,800 -720 Descending FlightAware ADS-B
04:39AM 51.4057 -0.9490 319° Northwest 240 276 5,800  Level FlightAware ADS-B
04:39AM 51.4086 -0.9519 328° Northwest 234 269 5,800  Level FlightAware ADS-B
04:39AM 51.4117 -0.9541 336° Northwest 229 264 5,800  Level FlightAware ADS-B
04:39AM 51.4158 -0.9563 342° North 221 254 5,800 420 Level FlightAware ADS-B
04:39AM 51.4243 -0.9592 348° North 211 243 5,900  Climbing FlightAware ADS-B
04:40AM 51.4382 -0.9626 351° North 197 227 5,800 -600 Descending FlightAware ADS-B
04:40AM 51.4430 -0.9634 354° North 193 222 5,700 -1,140 Descending FlightAware ADS-B
04:40AM 51.4479 -0.9628 North 190 219 5,600 -1,200 Descending FlightAware ADS-B
04:40AM 51.4510 -0.9613 17° North 185 213 5,500 -780 Descending FlightAware ADS-B
04:40AM 51.4541 -0.9591 24° Northeast 181 208 5,500 -780 Level FlightAware ADS-B
04:40AM 51.4570 -0.9555 38° Northeast 178 205 5,400 -1,500 Descending FlightAware ADS-B
04:40AM 51.4590 -0.9519 49° Northeast 176 203 5,300 -1,140 Descending FlightAware ADS-B
04:40AM 51.4623 -0.9448 53° Northeast 175 201 5,200 -1,020 Descending FlightAware ADS-B
04:40AM 51.4673 -0.9320 58° Northeast 180 207 5,000 -1,080 Descending FlightAware ADS-B
04:41AM 51.4744 -0.9124 60° Northeast 184 212 4,700 -1,260 Descending FlightAware ADS-B
04:41AM 51.4794 -0.8984 60° Northeast 187 215 4,400 -1,200 Descending FlightAware ADS-B
04:41AM 51.4833 -0.8871 61° Northeast 187 215 4,300 -960 Descending FlightAware ADS-B
04:41AM 51.4850 -0.8817 64° Northeast 186 214 4,200 -1,500 Descending FlightAware ADS-B
04:41AM 51.4862 -0.8765 69° East 186 214 4,100 -1,500 Descending FlightAware ADS-B
04:41AM 51.4871 -0.8709 76° East 185 213 4,000 -780 Descending FlightAware ADS-B
04:41AM 51.4874 -0.8661 84° East 185 213 4,000 -720 Level FlightAware ADS-B
04:41AM 51.4877 -0.8597 86° East 184 212 3,900 -1,200 Descending FlightAware ADS-B
04:42AM 51.4879 -0.8518 88° East 184 212 3,800 -1,200 Descending FlightAware ADS-B
04:42AM 51.4878 -0.8388 91° East 182 209 3,600 -900 Descending FlightAware ADS-B
04:42AM 51.4879 -0.8253 89° East 179 206 3,500 -840 Descending FlightAware ADS-B
04:42AM 51.4881 -0.8102 89° East 175 201 3,300 -840 Descending FlightAware ADS-B
04:42AM 51.4883 -0.7964 89° East 173 199 3,200 -720 Descending FlightAware ADS-B
04:42AM 51.4886 -0.7766 89° East 173 199 3,000 -1,020 Descending FlightAware ADS-B
04:43AM 51.4890 -0.7574 88° East 166 191 2,700 -960 Descending FlightAware ADS-B
04:43AM 51.4891 -0.7454 89° East 161 185 2,600 -960 Descending FlightAware ADS-B
04:43AM 51.4893 -0.7272 89° East 154 177 2,300 -960 Descending FlightAware ADS-B
04:43AM 51.4895 -0.7162 88° East 147 169 2,200 -720 Descending FlightAware ADS-B
04:44AM 51.4898 -0.6999 88° East 145 167 2,000 -720 Descending FlightAware ADS-B
04:44AM 51.4900 -0.6892 88° East 147 169 1,900 -660 Descending FlightAware ADS-B
04:44AM 51.4902 -0.6794 88° East 148 170 1,800 -780 Descending FlightAware ADS-B
04:44AM 51.4905 -0.6619 88° East 157 181 1,600 -1,020 Descending FlightAware ADS-B
04:44AM 51.4907 -0.6439 89° East 156 180 1,300 -900 Descending FlightAware ADS-B
04:45AM 51.4910 -0.6110 89° East 129 148 900 -720 Descending FlightAware
04:45AM 51.4920 -0.5920 85° East 132 152 700 -720 Descending FlightAware
04:46AM 51.4920 -0.5670 90° East 131 151 400 -840 Descending FlightAware
04:46AM 51.4920 -0.5490 90° East 128 147 100 -900 Descending FlightAware
04:47AM 51.4930 -0.5210 87° East 128 147 -180 Descending FlightAware